Time;durP1;ratioP1;P1;durP2;ratioP2;P2;SDS_P1;SDS_P2;PMS_P1;PMS_P2;Temp;Humidity;BMP_temperature;BMP_pressure;BME280_temperature;BME280_humidity;BME280_pressure;Samples;Min_cycle;Max_cycle;Signal;HPM_P1;HPM_P2
2020/12/10 00:00:56;;;;;;;46.50;31.47;;;0.20;99.90;;;;;;5032022;28;20476;-66
2020/12/10 00:03:23;;;;;;;52.53;34.30;;;0.20;99.90;;;;;;5032314;28;20416;-67
2020/12/10 00:05:49;;;;;;;44.23;29.23;;;0.20;99.90;;;;;;5032633;28;20441;-67
2020/12/10 00:08:15;;;;;;;45.70;30.97;;;0.20;99.90;;;;;;5032386;28;20441;-65
2020/12/10 00:10:41;;;;;;;47.40;32.47;;;0.20;99.90;;;;;;5031804;28;20472;-67
2020/12/10 00:13:08;;;;;;;41.03;29.30;;;0.20;99.90;;;;;;5032209;28;20976;-66
2020/12/10 00:15:34;;;;;;;45.97;32.13;;;0.20;99.90;;;;;;5032132;28;20952;-66
2020/12/10 00:18:00;;;;;;;44.53;29.63;;;0.20;99.90;;;;;;5032051;28;20449;-66
2020/12/10 00:20:27;;;;;;;44.50;30.73;;;0.20;99.90;;;;;;5031653;28;20457;-66
2020/12/10 00:22:53;;;;;;;44.00;30.10;;;0.20;99.90;;;;;;5032147;28;20408;-66
2020/12/10 00:25:20;;;;;;;39.80;29.80;;;0.20;99.90;;;;;;5032166;28;20437;-66
2020/12/10 00:27:46;;;;;;;40.53;28.97;;;0.20;99.90;;;;;;5032140;28;20441;-66
2020/12/10 00:30:12;;;;;;;42.73;29.03;;;0.20;99.90;;;;;;5031745;28;20535;-66
2020/12/10 00:32:39;;;;;;;39.03;29.93;;;0.20;99.90;;;;;;5031910;28;20444;-66
2020/12/10 00:35:07;;;;;;;38.50;26.57;;;0.20;99.90;;;;;;5031918;28;20441;-66
2020/12/10 00:37:35;;;;;;;41.00;30.23;;;0.20;99.90;;;;;;5031814;28;20444;-66
2020/12/10 00:40:02;;;;;;;39.27;27.67;;;0.20;99.90;;;;;;5031559;28;20472;-66
2020/12/10 00:42:29;;;;;;;39.47;30.27;;;0.20;99.90;;;;;;5031755;28;20437;-66
2020/12/10 00:44:55;;;;;;;37.87;27.33;;;0.20;99.90;;;;;;5031673;28;20441;-66
2020/12/10 00:47:21;;;;;;;41.20;26.33;;;0.20;99.90;;;;;;5031796;28;20437;-65
2020/12/10 00:49:47;;;;;;;40.47;27.87;;;0.20;99.90;;;;;;5031415;28;20461;-66
2020/12/10 00:52:14;;;;;;;35.60;27.17;;;0.30;99.90;;;;;;5031671;28;20451;-65
2020/12/10 00:54:42;;;;;;;35.87;25.80;;;0.30;99.90;;;;;;5031726;28;20489;-65
2020/12/10 00:57:09;;;;;;;33.97;25.73;;;0.30;99.90;;;;;;5031604;28;20437;-65
2020/12/10 00:59:35;;;;;;;40.43;27.37;;;0.30;99.90;;;;;;5031244;28;20445;-66
2020/12/10 01:02:01;;;;;;;34.07;24.93;;;0.40;99.90;;;;;;5031625;28;20448;-66
2020/12/10 01:04:28;;;;;;;37.73;26.60;;;0.40;99.90;;;;;;5034298;28;20961;-66
2020/12/10 01:06:54;;;;;;;38.47;24.43;;;0.40;99.90;;;;;;5035811;28;20445;-66
2020/12/10 01:09:20;;;;;;;33.33;24.83;;;0.40;99.90;;;;;;5035665;28;21073;-65
2020/12/10 01:11:47;;;;;;;40.13;26.70;;;0.40;99.90;;;;;;5035314;28;20970;-66
2020/12/10 01:14:14;;;;;;;40.23;28.60;;;0.40;99.90;;;;;;5035373;28;20481;-67
2020/12/10 01:16:40;;;;;;;37.53;24.70;;;0.40;99.90;;;;;;5035534;28;20447;-66
2020/12/10 01:19:06;;;;;;;34.60;26.30;;;0.30;99.90;;;;;;5035409;28;20437;-65
2020/12/10 01:21:35;;;;;;;36.33;24.60;;;0.30;99.90;;;;;;5035091;28;20945;-66
2020/12/10 01:24:04;;;;;;;34.00;24.97;;;0.30;99.90;;;;;;5035478;28;20791;-67
2020/12/10 01:26:33;;;;;;;39.20;25.30;;;0.20;99.90;;;;;;5035369;28;20419;-66
2020/12/10 01:29:00;;;;;;;33.63;23.57;;;0.20;99.90;;;;;;5035256;28;20441;-67
2020/12/10 01:31:27;;;;;;;37.47;27.17;;;0.20;99.90;;;;;;5034897;28;20442;-66
2020/12/10 01:33:54;;;;;;;44.10;28.50;;;0.20;99.90;;;;;;5035100;28;20508;-66
2020/12/10 01:36:21;;;;;;;35.00;26.27;;;0.10;99.90;;;;;;5035246;28;20455;-66
2020/12/10 01:38:48;;;;;;;38.97;26.27;;;0.10;99.90;;;;;;5035202;28;20434;-67
2020/12/10 01:41:15;;;;;;;38.37;26.03;;;0.10;99.90;;;;;;5034792;28;20436;-66
2020/12/10 01:43:41;;;;;;;42.50;27.30;;;0.00;99.90;;;;;;5034950;28;20437;-66
2020/12/10 01:46:08;;;;;;;37.20;26.17;;;0.00;99.90;;;;;;5034976;28;20445;-66
2020/12/10 01:48:35;;;;;;;36.73;28.33;;;0.00;99.90;;;;;;5034949;28;20411;-67
2020/12/10 01:51:03;;;;;;;40.90;26.10;;;-0.10;99.90;;;;;;5034702;28;20463;-66
2020/12/10 01:53:30;;;;;;;37.60;25.97;;;-0.10;99.90;;;;;;5034757;28;20897;-66
2020/12/10 01:55:57;;;;;;;39.37;27.30;;;-0.10;99.90;;;;;;5034782;28;20444;-66
2020/12/10 01:58:23;;;;;;;44.60;28.60;;;-0.10;99.90;;;;;;5034828;28;20416;-67
2020/12/10 02:00:51;;;;;;;40.67;26.50;;;-0.10;99.90;;;;;;5034828;28;21047;-65
2020/12/10 02:03:18;;;;;;;42.17;30.10;;;-0.20;99.90;;;;;;5034854;28;20968;-65
2020/12/10 02:05:45;;;;;;;46.40;30.10;;;-0.20;99.90;;;;;;5034656;28;20819;-65
2020/12/10 02:08:11;;;;;;;42.63;28.70;;;-0.20;99.90;;;;;;5034515;28;20415;-66
2020/12/10 02:10:38;;;;;;;42.93;28.80;;;-0.20;99.90;;;;;;5034338;28;20457;-65
2020/12/10 02:13:05;;;;;;;42.30;27.27;;;-0.20;99.90;;;;;;5034363;28;20441;-65
2020/12/10 02:15:33;;;;;;;44.60;28.50;;;-0.30;99.90;;;;;;5033853;28;20441;-65
2020/12/10 02:18:02;;;;;;;46.67;29.73;;;-0.30;99.90;;;;;;5034462;28;20841;-66
2020/12/10 02:20:29;;;;;;;42.57;28.20;;;-0.30;99.90;;;;;;5034151;28;20831;-65
2020/12/10 02:23:00;;;;;;;49.30;31.70;;;-0.30;99.90;;;;;;5034391;28;20415;-65
2020/12/10 02:25:30;;;;;;;45.17;26.90;;;-0.30;99.90;;;;;;5034300;28;20867;-66
2020/12/10 02:27:57;;;;;;;47.17;30.17;;;-0.40;99.90;;;;;;5034282;28;20548;-65
2020/12/10 02:30:24;;;;;;;49.40;30.60;;;-0.40;99.90;;;;;;5033814;28;20460;-65
2020/12/10 02:32:56;;;;;;;48.70;27.97;;;-0.40;99.90;;;;;;5034085;28;20440;-65
2020/12/10 02:35:24;;;;;;;52.43;30.77;;;-0.40;99.90;;;;;;5034147;28;21004;-65
2020/12/10 02:37:50;;;;;;;45.43;29.10;;;-0.40;99.90;;;;;;5034025;28;20447;-65
2020/12/10 02:40:17;;;;;;;51.53;31.87;;;-0.40;99.90;;;;;;5033714;28;20461;-65
2020/12/10 02:42:43;;;;;;;45.37;30.30;;;-0.40;99.90;;;;;;5033962;28;20444;-65
2020/12/10 02:45:09;;;;;;;47.93;32.87;;;-0.30;99.90;;;;;;5033967;28;20444;-65
2020/12/10 02:47:36;;;;;;;41.97;27.27;;;-0.30;99.90;;;;;;5033953;28;20437;-65
2020/12/10 02:50:03;;;;;;;43.80;29.30;;;-0.30;99.90;;;;;;5033618;28;20467;-66
2020/12/10 02:52:29;;;;;;;47.20;30.47;;;-0.30;99.90;;;;;;5033690;28;20472;-67
2020/12/10 02:54:56;;;;;;;47.60;28.57;;;-0.30;99.90;;;;;;5033837;28;20481;-66
2020/12/10 02:57:23;;;;;;;51.60;31.17;;;-0.30;99.90;;;;;;5033581;28;20753;-64
2020/12/10 02:59:49;;;;;;;45.47;29.80;;;-0.30;99.90;;;;;;5033274;28;20480;-67
2020/12/10 03:02:15;;;;;;;43.87;27.13;;;-0.30;99.90;;;;;;5033553;28;20418;-67
2020/12/10 03:04:41;;;;;;;46.43;29.20;;;-0.30;99.90;;;;;;5033636;28;20412;-64
2020/12/10 03:07:08;;;;;;;52.40;32.10;;;-0.40;99.90;;;;;;5033554;28;20459;-64
2020/12/10 03:09:34;;;;;;;49.37;31.93;;;-0.30;99.90;;;;;;5033254;28;20923;-64
2020/12/10 03:12:00;;;;;;;48.03;31.57;;;-0.30;99.90;;;;;;5033190;28;20452;-64
2020/12/10 03:14:27;;;;;;;53.03;30.13;;;-0.40;99.90;;;;;;5033295;28;20970;-66
2020/12/10 03:16:53;;;;;;;47.63;30.37;;;-0.40;99.90;;;;;;5033285;28;20806;-66
2020/12/10 03:19:20;;;;;;;48.27;31.27;;;-0.30;99.90;;;;;;5033142;28;20803;-64
2020/12/10 03:21:46;;;;;;;54.20;30.93;;;-0.40;99.90;;;;;;5032837;28;20829;-66
2020/12/10 03:24:12;;;;;;;50.33;31.97;;;-0.40;99.90;;;;;;5033220;28;20450;-66
2020/12/10 03:26:38;;;;;;;51.17;29.20;;;-0.40;99.90;;;;;;5032087;28;20449;-66
2020/12/10 03:29:07;;;;;;;49.00;30.87;;;-0.40;99.90;;;;;;5033206;28;20419;-66
2020/12/10 03:31:35;;;;;;;52.10;30.93;;;-0.40;99.90;;;;;;5032899;28;20552;-67
2020/12/10 03:34:01;;;;;;;59.43;34.07;;;-0.40;99.90;;;;;;5032946;28;20491;-67
2020/12/10 03:36:30;;;;;;;50.73;32.73;;;-0.40;99.90;;;;;;5033022;28;20460;-66
2020/12/10 03:38:56;;;;;;;52.87;31.87;;;-0.40;99.90;;;;;;5032962;28;20460;-66
2020/12/10 03:41:22;;;;;;;52.87;32.93;;;-0.40;99.90;;;;;;5032428;28;20436;-66
2020/12/10 03:43:48;;;;;;;54.80;33.93;;;-0.40;99.90;;;;;;5032844;28;20924;-66
2020/12/10 03:46:15;;;;;;;51.53;32.67;;;-0.40;99.90;;;;;;5032699;28;20449;-67
2020/12/10 03:48:42;;;;;;;58.80;36.77;;;-0.40;99.90;;;;;;5032631;28;20448;-67
2020/12/10 03:51:08;;;;;;;60.67;33.83;;;-0.40;99.90;;;;;;5032371;28;20472;-67
2020/12/10 03:53:34;;;;;;;54.23;32.73;;;-0.40;99.90;;;;;;5032513;28;20477;-67
2020/12/10 03:56:00;;;;;;;59.80;32.10;;;-0.40;99.90;;;;;;5032441;28;20452;-67
2020/12/10 03:58:27;;;;;;;52.00;32.17;;;-0.40;99.90;;;;;;5032675;28;20444;-67
2020/12/10 04:00:53;;;;;;;55.70;34.27;;;-0.40;99.90;;;;;;5032135;28;20447;-67
2020/12/10 04:03:19;;;;;;;53.10;32.57;;;-0.40;99.90;;;;;;5032404;28;20441;-66
2020/12/10 04:05:46;;;;;;;49.30;32.80;;;-0.40;99.90;;;;;;5032563;28;20444;-67
2020/12/10 04:08:12;;;;;;;56.60;33.77;;;-0.40;99.90;;;;;;5031821;28;20452;-67
2020/12/10 04:10:39;;;;;;;53.57;33.50;;;-0.40;99.90;;;;;;5031922;28;20460;-68
2020/12/10 04:13:05;;;;;;;53.83;31.27;;;-0.40;99.90;;;;;;5032296;28;20441;-68
2020/12/10 04:15:31;;;;;;;51.93;33.00;;;-0.40;99.90;;;;;;5032207;28;20437;-68
2020/12/10 04:17:57;;;;;;;57.07;34.33;;;-0.40;99.90;;;;;;5032120;28;20445;-68
2020/12/10 04:20:23;;;;;;;52.53;33.30;;;-0.40;99.90;;;;;;5031742;28;20974;-68
2020/12/10 04:22:50;;;;;;;63.53;33.87;;;-0.40;99.90;;;;;;5032021;28;20441;-68
2020/12/10 04:25:17;;;;;;;67.83;37.67;;;-0.40;99.90;;;;;;5032139;28;20872;-68
2020/12/10 04:27:43;;;;;;;62.43;38.93;;;-0.40;99.90;;;;;;5032118;28;20937;-68
2020/12/10 04:30:09;;;;;;;52.90;32.73;;;-0.50;99.90;;;;;;5031742;28;20461;-66
2020/12/10 04:32:36;;;;;;;58.43;36.20;;;-0.50;99.90;;;;;;5032156;28;20460;-68
2020/12/10 04:35:02;;;;;;;56.20;35.20;;;-0.40;99.90;;;;;;5031788;28;20487;-66
2020/12/10 04:37:29;;;;;;;62.87;35.43;;;-0.40;99.90;;;;;;5031653;28;20446;-68
2020/12/10 04:39:56;;;;;;;61.20;37.57;;;-0.40;99.90;;;;;;5031672;28;20464;-66
2020/12/10 04:42:22;;;;;;;62.80;34.43;;;-0.40;99.90;;;;;;5031740;28;20835;-68
2020/12/10 04:44:49;;;;;;;59.70;36.73;;;-0.40;99.90;;;;;;5031743;28;20415;-67
2020/12/10 04:47:15;;;;;;;58.73;35.30;;;-0.40;99.90;;;;;;5031787;28;20441;-68
2020/12/10 04:49:41;;;;;;;57.40;36.00;;;-0.50;99.90;;;;;;5031379;28;20464;-68
2020/12/10 04:52:10;;;;;;;61.00;38.40;;;-0.50;99.90;;;;;;5031640;28;20423;-68
2020/12/10 04:54:37;;;;;;;61.70;34.80;;;-0.50;99.90;;;;;;5031645;28;20481;-66
2020/12/10 04:57:09;;;;;;;60.20;36.23;;;-0.50;99.90;;;;;;5031603;28;20456;-66
2020/12/10 04:59:35;;;;;;;60.97;37.13;;;-0.60;99.90;;;;;;5031313;28;20452;-68
2020/12/10 05:02:01;;;;;;;60.07;34.70;;;-0.60;99.90;;;;;;5031438;28;20448;-67
2020/12/10 05:04:28;;;;;;;62.17;35.23;;;-0.50;99.90;;;;;;5031497;28;20443;-66
2020/12/10 05:06:54;;;;;;;65.43;39.27;;;-0.50;99.90;;;;;;5031652;28;20437;-66
2020/12/10 05:09:20;;;;;;;63.90;36.50;;;-0.50;99.90;;;;;;5031394;28;20441;-66
2020/12/10 05:11:46;;;;;;;58.43;36.07;;;-0.50;99.90;;;;;;5031275;28;20456;-66
2020/12/10 05:14:13;;;;;;;56.10;36.03;;;-0.50;99.90;;;;;;5031517;28;20492;-66
2020/12/10 05:16:40;;;;;;;54.80;35.43;;;-0.40;99.90;;;;;;5031506;28;20448;-68
2020/12/10 05:19:19;;;;;;;59.97;35.10;;;-0.40;99.90;;;;;;5031320;28;20437;-68
2020/12/10 05:22:02;;;;;;;65.90;37.80;;;-0.50;99.90;;;;;;5031168;28;20443;-68
2020/12/10 05:24:29;;;;;;;58.20;34.80;;;-0.50;99.90;;;;;;5031322;28;20442;-69
2020/12/10 05:27:18;;;;;;;60.80;35.50;;;-0.50;99.90;;;;;;5031338;28;20803;-68
2020/12/10 05:29:45;;;;;;;56.80;36.17;;;-0.50;99.90;;;;;;5031205;28;20454;-66
2020/12/10 05:32:30;;;;;;;61.57;37.53;;;-0.60;99.90;;;;;;5031232;28;20438;-68
2020/12/10 05:34:56;;;;;;;60.00;36.53;;;-0.60;99.90;;;;;;5031162;28;20483;-68
2020/12/10 05:37:27;;;;;;;62.43;37.60;;;-0.60;99.90;;;;;;5031264;28;20451;-68
2020/12/10 05:39:59;;;;;;;67.03;37.37;;;-0.60;99.90;;;;;;5030996;28;20461;-68
2020/12/10 05:42:34;;;;;;;62.90;37.23;;;-0.70;99.90;;;;;;5031189;28;20445;-66
2020/12/10 05:45:09;;;;;;;73.53;39.97;;;-0.70;99.90;;;;;;5031163;28;20471;-66
2020/12/10 05:47:39;;;;;;;66.23;38.23;;;-0.70;99.90;;;;;;5031285;28;20445;-66
2020/12/10 05:50:06;;;;;;;76.53;42.30;;;-0.80;99.90;;;;;;5032759;28;20461;-66
2020/12/10 05:52:36;;;;;;;63.33;37.70;;;-0.80;99.90;;;;;;5034815;28;20447;-66
2020/12/10 05:55:03;;;;;;;66.37;35.17;;;-0.80;99.90;;;;;;5034828;28;20550;-67
2020/12/10 05:57:29;;;;;;;74.53;41.43;;;-0.80;99.90;;;;;;5034783;28;20437;-66
2020/12/10 05:59:56;;;;;;;70.07;38.70;;;-0.80;99.90;;;;;;5034233;28;20472;-66
2020/12/10 06:02:25;;;;;;;71.70;40.13;;;-0.80;99.90;;;;;;5034605;28;20958;-66
2020/12/10 06:04:53;;;;;;;66.70;37.50;;;-0.90;99.90;;;;;;5034648;28;20437;-66
2020/12/10 06:07:19;;;;;;;77.37;40.60;;;-0.90;99.90;;;;;;5034507;28;20482;-66
2020/12/10 06:09:46;;;;;;;73.43;40.53;;;-0.80;99.90;;;;;;5034294;28;20493;-66
2020/12/10 06:12:12;;;;;;;68.77;37.57;;;-0.80;99.90;;;;;;5034296;28;20415;-66
2020/12/10 06:14:51;;;;;;;70.40;38.27;;;-0.80;99.90;;;;;;5034095;28;20458;-66
2020/12/10 06:17:17;;;;;;;70.47;40.27;;;-0.80;99.90;;;;;;5034051;28;20452;-66
2020/12/10 06:19:44;;;;;;;70.33;39.20;;;-0.80;99.90;;;;;;5034024;28;20484;-66
2020/12/10 06:22:24;;;;;;;85.67;40.70;;;-0.80;99.90;;;;;;5033208;28;20441;-66
2020/12/10 06:24:51;;;;;;;75.73;39.57;;;-0.80;99.90;;;;;;5033029;28;20441;-66
2020/12/10 06:27:25;;;;;;;71.33;38.93;;;-0.80;99.90;;;;;;5032999;28;20472;-66
2020/12/10 06:30:10;;;;;;;68.73;38.50;;;-0.80;99.90;;;;;;5032643;28;20468;-66
2020/12/10 06:32:42;;;;;;;79.60;42.77;;;-0.90;99.90;;;;;;5032969;28;20861;-66
2020/12/10 06:35:28;;;;;;;74.17;40.37;;;-0.90;99.90;;;;;;5032655;28;20477;-66
2020/12/10 06:37:55;;;;;;;63.07;38.77;;;-1.00;99.90;;;;;;5033077;28;20507;-68
2020/12/10 06:40:33;;;;;;;78.73;39.80;;;-0.90;99.90;;;;;;5033434;28;20456;-67
2020/12/10 06:43:00;;;;;;;69.73;40.40;;;-0.90;99.90;;;;;;5033546;28;20930;-66
2020/12/10 06:45:29;;;;;;;82.07;43.67;;;-0.80;99.90;;;;;;5033711;28;20423;-65
2020/12/10 06:47:55;;;;;;;71.87;41.90;;;-0.80;99.90;;;;;;5033634;28;20771;-66
2020/12/10 06:50:24;;;;;;;71.27;40.20;;;-0.80;99.90;;;;;;5033283;28;20468;-66
2020/12/10 06:53:21;;;;;;;73.13;41.50;;;-0.80;99.90;;;;;;5033506;28;20438;-66
2020/12/10 06:56:11;;;;;;;69.13;41.10;;;-0.80;99.90;;;;;;4972356;28;20444;-66
2020/12/10 06:58:54;;;;;;;64.53;35.30;;;-0.70;99.90;;;;;;5029374;28;20539;-66
2020/12/10 07:01:25;;;;;;;69.47;38.30;;;-0.70;99.90;;;;;;5031932;28;20953;-67
2020/12/10 07:03:55;;;;;;;73.03;39.93;;;-0.70;99.90;;;;;;5033417;28;20444;-68
2020/12/10 07:06:22;;;;;;;57.90;34.70;;;-0.60;99.90;;;;;;5033365;28;20473;-66
2020/12/10 07:08:59;;;;;;;61.90;35.93;;;-0.60;99.90;;;;;;5033121;28;20419;-67
2020/12/10 07:11:31;;;;;;;66.07;38.97;;;-0.60;99.90;;;;;;5032762;28;20431;-67
2020/12/10 07:13:57;;;;;;;62.73;38.23;;;-0.60;99.90;;;;;;5032971;28;20516;-68
2020/12/10 07:16:30;;;;;;;62.57;37.33;;;-0.60;99.90;;;;;;5033064;28;20412;-68
2020/12/10 07:18:56;;;;;;;69.03;37.17;;;-0.60;99.90;;;;;;5033030;28;20444;-67
2020/12/10 07:21:24;;;;;;;61.77;36.97;;;-0.60;99.90;;;;;;5032712;28;20439;-67
2020/12/10 07:23:50;;;;;;;64.27;36.37;;;-0.60;99.90;;;;;;5033001;28;20441;-67
2020/12/10 07:26:17;;;;;;;63.40;35.27;;;-0.60;99.90;;;;;;5033004;28;20481;-66
2020/12/10 07:28:46;;;;;;;62.70;36.43;;;-0.60;99.90;;;;;;5032820;28;20448;-66
2020/12/10 07:31:16;;;;;;;60.40;36.50;;;-0.60;99.90;;;;;;5032513;28;20453;-67
2020/12/10 07:33:43;;;;;;;57.53;36.63;;;-0.60;99.90;;;;;;5032841;28;20440;-67
2020/12/10 07:36:10;;;;;;;62.13;35.43;;;-0.50;99.90;;;;;;5032578;28;20441;-66
2020/12/10 07:38:37;;;;;;;62.00;34.00;;;-0.50;99.90;;;;;;5032682;28;20449;-67
2020/12/10 07:41:03;;;;;;;57.07;35.80;;;-0.50;99.90;;;;;;5032241;28;20983;-66
2020/12/10 07:43:29;;;;;;;54.30;33.67;;;-0.40;99.90;;;;;;5032526;28;20443;-67
2020/12/10 07:45:56;;;;;;;51.23;31.60;;;-0.40;99.90;;;;;;5032608;28;20412;-65
2020/12/10 07:48:22;;;;;;;52.50;33.27;;;-0.40;99.90;;;;;;5032391;28;20445;-66
2020/12/10 07:50:49;;;;;;;54.47;32.77;;;-0.30;99.90;;;;;;5032016;28;20496;-67
2020/12/10 07:53:15;;;;;;;57.67;34.87;;;-0.30;99.90;;;;;;5032341;28;20447;-67
2020/12/10 07:55:50;;;;;;;57.73;35.10;;;-0.30;99.90;;;;;;5032258;28;20481;-66
2020/12/10 07:58:28;;;;;;;50.10;32.57;;;-0.30;99.90;;;;;;5032369;28;20447;-66
2020/12/10 08:00:58;;;;;;;54.10;33.33;;;-0.20;99.90;;;;;;5032284;28;20452;-67
2020/12/10 08:03:33;;;;;;;49.77;32.57;;;-0.20;99.90;;;;;;5032227;28;20441;-68
2020/12/10 08:06:03;;;;;;;53.63;34.80;;;-0.10;99.90;;;;;;5032113;28;20451;-67
2020/12/10 08:08:32;;;;;;;57.33;33.67;;;-0.20;99.90;;;;;;5032055;28;20543;-67
2020/12/10 08:11:10;;;;;;;54.67;34.20;;;-0.10;99.90;;;;;;5031694;28;20476;-68
2020/12/10 08:13:37;;;;;;;45.37;33.03;;;-0.10;99.90;;;;;;5031540;28;20437;-67
2020/12/10 08:16:08;;;;;;;49.00;31.00;;;0.00;99.90;;;;;;5031906;28;20459;-67
2020/12/10 08:18:35;;;;;;;47.83;31.23;;;0.00;99.90;;;;;;5031851;28;20443;-68
2020/12/10 08:21:05;;;;;;;48.37;32.30;;;0.10;99.90;;;;;;5031526;28;21033;-67
2020/12/10 08:23:44;;;;;;;48.47;32.23;;;0.10;99.90;;;;;;5031849;28;20532;-66
2020/12/10 08:26:12;;;;;;;45.00;30.23;;;0.20;99.90;;;;;;5031804;28;20480;-67
2020/12/10 08:28:38;;;;;;;46.17;30.07;;;0.20;99.90;;;;;;5031649;28;20453;-68
2020/12/10 08:31:05;;;;;;;43.73;30.57;;;0.30;99.90;;;;;;5031416;28;20464;-68
2020/12/10 08:33:35;;;;;;;42.13;27.73;;;0.40;99.90;;;;;;5031495;28;20423;-67
2020/12/10 08:36:02;;;;;;;41.33;29.23;;;0.50;99.90;;;;;;5031530;28;20437;-67
2020/12/10 08:38:28;;;;;;;46.67;32.70;;;0.50;99.90;;;;;;5031398;28;20441;-67
2020/12/10 08:40:56;;;;;;;42.20;29.07;;;0.50;99.90;;;;;;5031419;28;20468;-68
2020/12/10 08:43:24;;;;;;;39.63;28.10;;;0.50;99.90;;;;;;5031325;28;20762;-66
2020/12/10 08:45:50;;;;;;;40.80;27.97;;;0.60;99.90;;;;;;5031476;28;20445;-67
2020/12/10 08:48:25;;;;;;;40.27;27.20;;;0.60;99.90;;;;;;5031515;28;20444;-67
2020/12/10 08:50:52;;;;;;;42.80;27.33;;;0.70;99.90;;;;;;5031355;28;20467;-67
2020/12/10 08:53:19;;;;;;;37.60;26.90;;;0.70;99.90;;;;;;5031463;28;20447;-68
2020/12/10 08:55:48;;;;;;;39.73;28.00;;;0.80;99.90;;;;;;5031360;28;20886;-67
2020/12/10 08:58:16;;;;;;;32.90;27.20;;;0.80;99.90;;;;;;5031569;28;20445;-67
2020/12/10 09:00:43;;;;;;;37.90;27.30;;;0.90;99.90;;;;;;5032159;28;20554;-68
2020/12/10 09:03:10;;;;;;;34.33;25.07;;;1.00;99.90;;;;;;5037587;28;20445;-68
2020/12/10 09:05:36;;;;;;;33.07;24.00;;;1.00;99.90;;;;;;5034452;28;20437;-68
2020/12/10 09:08:02;;;;;;;37.17;27.33;;;1.10;99.90;;;;;;5031885;28;20437;-69
2020/12/10 09:10:29;;;;;;;33.93;23.97;;;1.20;99.90;;;;;;5030534;28;20472;-68
2020/12/10 09:12:57;;;;;;;40.37;25.77;;;1.30;99.90;;;;;;5031268;28;20503;-68
2020/12/10 09:15:23;;;;;;;29.20;23.10;;;1.40;99.90;;;;;;5031145;28;20491;-68
2020/12/10 09:17:50;;;;;;;30.00;23.63;;;1.40;99.90;;;;;;5031122;28;20445;-68
2020/12/10 09:20:17;;;;;;;32.93;22.97;;;1.50;99.90;;;;;;5030759;28;20490;-67
2020/12/10 09:22:44;;;;;;;29.33;23.30;;;1.60;99.90;;;;;;5031332;28;20455;-68
2020/12/10 09:25:11;;;;;;;26.73;22.73;;;1.60;99.90;;;;;;5033279;28;20437;-67
2020/12/10 09:27:37;;;;;;;31.77;23.70;;;1.60;99.90;;;;;;5035117;28;20433;-67
2020/12/10 09:30:06;;;;;;;32.63;23.97;;;1.70;99.90;;;;;;5034949;28;20465;-67
2020/12/10 09:32:34;;;;;;;29.33;23.47;;;1.70;99.90;;;;;;5034930;28;20437;-69
2020/12/10 09:35:02;;;;;;;29.90;22.43;;;1.80;99.90;;;;;;5034819;28;20476;-68
2020/12/10 09:37:28;;;;;;;29.10;22.63;;;1.90;99.90;;;;;;5034775;28;20441;-68
2020/12/10 09:39:55;;;;;;;32.30;24.80;;;2.00;99.90;;;;;;5034579;28;20471;-69
2020/12/10 09:42:21;;;;;;;27.67;23.33;;;2.00;99.90;;;;;;5034837;28;20443;-68
2020/12/10 09:44:47;;;;;;;28.43;25.33;;;2.10;99.90;;;;;;5034831;28;20443;-68
2020/12/10 09:47:14;;;;;;;26.00;22.33;;;2.20;99.90;;;;;;5034766;28;20796;-67
2020/12/10 09:49:40;;;;;;;27.90;22.70;;;2.30;99.90;;;;;;5034409;28;20457;-69
2020/12/10 09:52:08;;;;;;;27.63;22.93;;;2.40;99.90;;;;;;5034683;28;20441;-69
2020/12/10 09:54:47;;;;;;;30.70;25.07;;;2.50;99.90;;;;;;5034399;28;20575;-68
2020/12/10 09:57:29;;;;;;;29.93;24.77;;;2.70;99.90;;;;;;5034621;28;20440;-68
2020/12/10 09:59:56;;;;;;;30.07;26.97;;;2.80;99.90;;;;;;5034328;28;20543;-69
2020/12/10 10:02:22;;;;;;;30.97;23.90;;;2.90;99.90;;;;;;5034324;28;20437;-68
2020/12/10 10:04:48;;;;;;;29.67;25.83;;;3.00;99.90;;;;;;5034495;28;20436;-68
2020/12/10 10:07:16;;;;;;;33.93;25.03;;;3.10;99.90;;;;;;5034242;28;20440;-68
2020/12/10 10:09:43;;;;;;;26.60;23.80;;;3.20;99.90;;;;;;5034097;28;20467;-69
2020/12/10 10:12:09;;;;;;;26.40;23.70;;;3.50;99.90;;;;;;5034289;28;20880;-69
2020/12/10 10:14:37;;;;;;;23.87;21.47;;;3.70;99.90;;;;;;5034089;28;20605;-69
2020/12/10 10:17:05;;;;;;;25.73;22.30;;;4.00;99.90;;;;;;5034180;28;20861;-68
2020/12/10 10:19:31;;;;;;;25.40;22.67;;;4.20;99.90;;;;;;5033985;28;20445;-68
2020/12/10 10:21:57;;;;;;;26.13;22.50;;;4.50;99.90;;;;;;5033952;28;20441;-68
2020/12/10 10:24:24;;;;;;;26.10;23.40;;;4.90;99.90;;;;;;5033983;28;20441;-69
2020/12/10 10:26:51;;;;;;;24.63;22.37;;;5.00;99.90;;;;;;5034077;28;20437;-68
2020/12/10 10:29:20;;;;;;;27.97;25.50;;;5.20;99.90;;;;;;5033825;28;20565;-68
2020/12/10 10:31:46;;;;;;;27.17;24.50;;;5.50;99.90;;;;;;5033779;28;20874;-68
2020/12/10 10:34:13;;;;;;;28.33;25.70;;;6.00;99.90;;;;;;5033757;28;20543;-68
2020/12/10 10:36:39;;;;;;;29.07;26.40;;;6.20;99.90;;;;;;5033454;28;20957;-69
2020/12/10 10:39:05;;;;;;;27.47;25.17;;;6.60;99.90;;;;;;5033694;28;20449;-68
2020/12/10 10:41:32;;;;;;;28.23;25.77;;;6.90;99.90;;;;;;5033325;28;20457;-69
2020/12/10 10:43:59;;;;;;;27.17;24.93;;;7.00;99.90;;;;;;5033790;28;20441;-69
2020/12/10 10:46:25;;;;;;;26.53;24.43;;;7.30;99.90;;;;;;5033598;28;20460;-69
2020/12/10 10:48:51;;;;;;;29.17;26.70;;;7.60;98.80;;;;;;5033453;28;20455;-69
2020/12/10 10:51:17;;;;;;;28.00;25.90;;;7.60;96.90;;;;;;5033258;28;20834;-68
2020/12/10 10:53:44;;;;;;;29.97;27.40;;;7.70;96.60;;;;;;5033496;28;20437;-68
2020/12/10 10:56:10;;;;;;;29.43;26.90;;;7.60;95.50;;;;;;5033415;28;20484;-68
2020/12/10 10:58:38;;;;;;;28.77;26.40;;;7.60;95.80;;;;;;5033334;28;20437;-69
2020/12/10 11:01:04;;;;;;;28.57;26.33;;;7.80;95.30;;;;;;5032952;28;20472;-68
2020/12/10 11:03:31;;;;;;;29.33;27.10;;;7.70;94.20;;;;;;5033172;28;20441;-69
2020/12/10 11:05:57;;;;;;;26.80;24.87;;;7.20;94.00;;;;;;5033256;28;20440;-69
2020/12/10 11:08:23;;;;;;;26.83;24.63;;;7.20;95.00;;;;;;5033054;28;20441;-69
2020/12/10 11:10:49;;;;;;;28.80;26.50;;;7.10;94.80;;;;;;5032876;28;20457;-69
2020/12/10 11:13:16;;;;;;;29.37;27.00;;;7.00;95.00;;;;;;5033129;28;20440;-68
2020/12/10 11:15:43;;;;;;;29.70;27.37;;;6.80;95.40;;;;;;5032871;28;20480;-69
2020/12/10 11:18:09;;;;;;;28.20;25.90;;;6.90;95.90;;;;;;5032953;28;20437;-69
2020/12/10 11:20:35;;;;;;;28.30;26.17;;;6.80;96.10;;;;;;5032507;28;20457;-69
2020/12/10 11:23:01;;;;;;;27.13;25.03;;;6.80;95.90;;;;;;5033006;28;20528;-69
2020/12/10 11:25:28;;;;;;;26.57;24.57;;;6.90;96.20;;;;;;5032883;28;20461;-69
2020/12/10 11:27:54;;;;;;;26.83;24.87;;;7.40;95.30;;;;;;5032791;28;20897;-68
2020/12/10 11:30:20;;;;;;;28.20;26.10;;;7.40;94.40;;;;;;5032435;28;20834;-68
2020/12/10 11:32:48;;;;;;;27.70;25.70;;;7.10;94.10;;;;;;5032532;28;20449;-68
2020/12/10 11:35:14;;;;;;;26.33;24.47;;;6.90;94.70;;;;;;5032370;28;20485;-69
2020/12/10 11:37:40;;;;;;;28.50;26.20;;;6.80;94.80;;;;;;5032685;28;20943;-68
2020/12/10 11:40:07;;;;;;;27.00;24.90;;;6.60;95.50;;;;;;5032340;28;20978;-68
2020/12/10 11:42:33;;;;;;;28.13;25.97;;;6.60;96.10;;;;;;5032505;28;20496;-68
2020/12/10 11:45:00;;;;;;;28.07;26.07;;;6.50;96.10;;;;;;5032527;28;20437;-68
2020/12/10 11:47:27;;;;;;;27.50;25.27;;;6.40;96.30;;;;;;5031671;28;20510;-68
2020/12/10 11:49:55;;;;;;;26.50;24.40;;;6.40;96.70;;;;;;5032154;28;20468;-68
2020/12/10 11:52:21;;;;;;;27.50;25.03;;;6.50;97.00;;;;;;5032384;28;20436;-68
2020/12/10 11:54:47;;;;;;;27.93;25.67;;;6.50;97.00;;;;;;5031904;28;20495;-68
2020/12/10 11:57:13;;;;;;;25.93;23.97;;;6.30;97.30;;;;;;5032226;28;20444;-68
2020/12/10 11:59:40;;;;;;;26.20;24.10;;;6.30;97.90;;;;;;5031911;28;20477;-69
2020/12/10 12:02:08;;;;;;;27.03;24.93;;;6.20;97.80;;;;;;5032202;28;20449;-69
2020/12/10 12:04:34;;;;;;;26.80;24.87;;;6.10;98.30;;;;;;5032158;28;20437;-68
2020/12/10 12:07:02;;;;;;;24.70;22.80;;;6.00;98.20;;;;;;5032141;28;20445;-68
2020/12/10 12:09:28;;;;;;;28.97;26.57;;;6.10;98.60;;;;;;5031906;28;20959;-68
2020/12/10 12:11:55;;;;;;;25.53;23.40;;;6.10;99.00;;;;;;5031726;28;20437;-68
2020/12/10 12:14:21;;;;;;;25.13;22.93;;;6.20;99.20;;;;;;5032030;28;20441;-69
2020/12/10 12:16:48;;;;;;;25.27;23.37;;;6.10;99.10;;;;;;5031924;28;20445;-69
2020/12/10 12:19:14;;;;;;;26.40;24.40;;;6.10;99.20;;;;;;5031841;28;20445;-68
2020/12/10 12:21:40;;;;;;;25.50;23.50;;;6.10;99.50;;;;;;5031479;28;20453;-68
2020/12/10 12:24:07;;;;;;;25.70;23.60;;;6.00;99.60;;;;;;5031856;28;20444;-68
2020/12/10 12:26:34;;;;;;;26.13;24.03;;;5.90;99.70;;;;;;5031749;28;20464;-68
2020/12/10 12:29:00;;;;;;;24.00;22.20;;;5.90;99.90;;;;;;5031769;28;20443;-67
2020/12/10 12:31:31;;;;;;;25.00;23.20;;;6.00;99.90;;;;;;5031584;28;20486;-69
2020/12/10 12:33:57;;;;;;;26.03;24.13;;;6.00;99.90;;;;;;5031678;28;20478;-69